Time;durP1;ratioP1;P1;durP2;ratioP2;P2;SDS_P1;SDS_P2;PMS_P1;PMS_P2;Temp;Humidity;BMP_temperature;BMP_pressure;BME280_temperature;BME280_humidity;BME280_pressure;Samples;Min_cycle;Max_cycle;Signal;HPM_P1;HPM_P2
2023/12/30 00:00:42;;;;;;;4.10;1.50;;;;;;;9.05;100.00;99537.69;215419;1285;139260;-91
2023/12/30 00:05:43;;;;;;;3.80;2.00;;;;;;;9.01;100.00;99533.77;216802;1285;138813;-91
2023/12/30 00:10:43;;;;;;;5.50;2.00;;;;;;;8.98;100.00;99527.71;217931;1286;140143;-90
2023/12/30 00:15:43;;;;;;;6.10;2.20;;;;;;;8.94;100.00;99523.71;218759;1285;138662;-88
2023/12/30 00:20:45;;;;;;;4.30;1.90;;;;;;;8.90;100.00;99520.17;215200;1288;139113;-88
2023/12/30 00:25:45;;;;;;;5.50;2.20;;;;;;;8.86;100.00;99515.21;214950;1289;138876;-87
2023/12/30 00:30:46;;;;;;;6.80;2.30;;;;;;;8.81;100.00;99508.94;214480;1286;139011;-89
2023/12/30 00:35:46;;;;;;;7.30;2.70;;;;;;;8.74;100.00;99502.17;214866;1285;139057;-88
2023/12/30 00:40:47;;;;;;;10.40;3.90;;;;;;;8.68;100.00;99494.61;214416;1289;139401;-88
2023/12/30 00:45:48;;;;;;;9.10;3.60;;;;;;;8.62;100.00;99493.97;214910;1289;138500;-87
2023/12/30 00:50:48;;;;;;;8.70;3.90;;;;;;;8.56;100.00;99488.38;214444;1289;139436;-89
2023/12/30 00:55:49;;;;;;;11.60;4.70;;;;;;;8.49;100.00;99466.81;215065;1291;138636;-90
2023/12/30 01:00:50;;;;;;;11.70;4.20;;;;;;;8.43;100.00;99458.48;214189;1288;139771;-89
2023/12/30 01:05:52;;;;;;;10.20;3.80;;;;;;;8.38;100.00;99460.81;215006;1286;139400;-88
2023/12/30 01:10:53;;;;;;;11.90;4.50;;;;;;;8.35;100.00;99466.36;214714;1289;139859;-89
2023/12/30 01:15:53;;;;;;;8.90;3.70;;;;;;;8.33;100.00;99462.35;215719;1286;138923;-87
2023/12/30 01:20:54;;;;;;;9.10;3.90;;;;;;;8.32;100.00;99448.96;215598;1289;139236;-88
2023/12/30 01:25:54;;;;;;;8.90;3.70;;;;;;;8.32;100.00;99444.25;215910;1286;138590;-87
2023/12/30 01:30:55;;;;;;;6.90;2.90;;;;;;;8.32;100.00;99447.70;215693;1286;140214;-89
2023/12/30 01:35:56;;;;;;;10.50;3.60;;;;;;;8.34;100.00;99445.60;216130;1285;139056;-88
2023/12/30 01:40:56;;;;;;;9.80;3.80;;;;;;;8.35;100.00;99442.00;215222;1289;139418;-89
2023/12/30 01:46:00;;;;;;;9.30;3.50;;;;;;;8.35;100.00;99437.14;215813;1285;138979;-90
2023/12/30 01:51:02;;;;;;;6.10;3.20;;;;;;;8.36;100.00;99425.09;216003;1285;138791;-93
2023/12/30 01:56:03;;;;;;;5.70;2.60;;;;;;;8.37;100.00;99413.19;218764;1284;138722;-91
2023/12/30 02:01:07;;;;;;;6.30;2.70;;;;;;;8.41;100.00;99412.11;218220;1285;139732;-89
2023/12/30 02:06:08;;;;;;;8.70;3.10;;;;;;;8.45;100.00;99409.98;215250;1288;138439;-92
2023/12/30 02:11:10;;;;;;;8.00;2.40;;;;;;;8.49;100.00;99416.59;214884;1287;139005;-90
2023/12/30 02:16:11;;;;;;;6.10;2.30;;;;;;;8.52;100.00;99423.04;214899;1288;138921;-88
2023/12/30 02:21:11;;;;;;;6.40;2.10;;;;;;;8.56;100.00;99444.58;214025;1287;140063;-89
2023/12/30 02:26:12;;;;;;;5.30;2.00;;;;;;;8.56;100.00;99469.11;214690;1288;138252;-90
2023/12/30 02:31:13;;;;;;;4.50;1.50;;;;;;;8.56;100.00;99478.20;213949;1285;139198;-88
2023/12/30 02:36:14;;;;;;;4.50;1.10;;;;;;;8.54;100.00;99478.19;214756;1284;138259;-89
2023/12/30 02:41:14;;;;;;;2.40;0.90;;;;;;;8.51;100.00;99479.05;214141;1287;139368;-91
2023/12/30 02:46:14;;;;;;;0.90;0.60;;;;;;;8.50;100.00;99486.09;214687;1285;138538;-90
2023/12/30 02:51:15;;;;;;;1.30;0.60;;;;;;;8.45;100.00;99484.41;214507;1285;139207;-90
2023/12/30 02:56:26;;;;;;;1.30;0.80;;;;;;;8.41;100.00;99467.33;215115;1285;138754;-89
2023/12/30 03:01:31;;;;;;;2.40;1.00;;;;;;;8.37;100.00;99482.11;215041;1288;140120;-90
2023/12/30 03:06:32;;;;;;;2.20;0.70;;;;;;;8.34;100.00;99507.94;215624;1285;138588;-90
2023/12/30 03:11:32;;;;;;;1.70;0.60;;;;;;;8.31;100.00;99513.79;215323;1285;140248;-89
2023/12/30 03:16:33;;;;;;;3.80;0.80;;;;;;;8.27;100.00;99519.74;215869;1284;138224;-90
2023/12/30 03:21:33;;;;;;;0.90;0.60;;;;;;;8.24;100.00;99516.66;215293;1285;140272;-91
2023/12/30 03:26:34;;;;;;;1.00;0.70;;;;;;;8.20;100.00;99516.55;215935;1284;138941;-90
2023/12/30 03:31:35;;;;;;;1.00;0.50;;;;;;;8.17;100.00;99516.42;215401;1284;139198;-90
2023/12/30 03:36:36;;;;;;;3.20;0.60;;;;;;;8.14;100.00;99521.50;216762;1285;138384;-90
2023/12/30 03:41:36;;;;;;;1.40;0.70;;;;;;;8.11;100.00;99519.77;218185;1284;138879;-89
2023/12/30 03:46:38;;;;;;;1.90;0.70;;;;;;;8.06;100.00;99520.19;218240;1284;138336;-91
2023/12/30 03:51:39;;;;;;;1.00;0.60;;;;;;;8.02;100.00;99526.91;215227;1289;139640;-87
2023/12/30 03:56:40;;;;;;;1.00;0.50;;;;;;;7.97;100.00;99537.98;215477;1286;137839;-88
2023/12/30 04:01:42;;;;;;;1.60;0.70;;;;;;;7.87;100.00;99536.58;214845;1285;139396;-88
2023/12/30 04:06:43;;;;;;;0.90;0.60;;;;;;;7.77;100.00;99543.85;215462;1289;139507;-88
2023/12/30 04:11:43;;;;;;;2.50;0.60;;;;;;;7.68;100.00;99541.59;214856;1290;139707;-87
2023/12/30 04:16:43;;;;;;;1.50;0.30;;;;;;;7.61;100.00;99548.73;214993;1284;138182;-87
2023/12/30 04:21:44;;;;;;;2.10;0.40;;;;;;;7.55;100.00;99556.36;213811;1285;139779;-89
2023/12/30 04:26:45;;;;;;;4.00;0.80;;;;;;;7.48;100.00;99560.35;214854;1284;96524;-88
2023/12/30 04:31:46;;;;;;;1.10;0.50;;;;;;;7.43;100.00;99558.98;214330;1286;139237;-89
2023/12/30 04:36:46;;;;;;;1.90;0.50;;;;;;;7.37;100.00;99558.14;214844;1291;138841;-89
2023/12/30 04:41:46;;;;;;;1.40;0.40;;;;;;;7.36;100.00;99558.82;214565;1284;139467;-88
2023/12/30 04:46:47;;;;;;;3.30;0.70;;;;;;;7.32;100.00;99562.45;215603;1284;138626;-89
2023/12/30 04:51:47;;;;;;;1.50;0.50;;;;;;;7.30;100.00;99557.36;215296;1284;139457;-89
2023/12/30 04:56:51;;;;;;;1.20;0.60;;;;;;;7.28;100.00;99561.55;215986;1284;97781;-90
2023/12/30 05:01:53;;;;;;;1.00;0.50;;;;;;;7.25;100.00;99567.70;215148;1287;138804;-90
2023/12/30 05:06:54;;;;;;;1.50;0.70;;;;;;;7.22;100.00;99574.08;215575;1287;138210;-88
2023/12/30 05:11:55;;;;;;;1.30;0.60;;;;;;;7.21;100.00;99584.64;215275;1284;140124;-89
2023/12/30 05:16:56;;;;;;;3.00;0.80;;;;;;;7.20;100.00;99584.38;215931;1284;138202;-89
2023/12/30 05:21:56;;;;;;;2.00;1.00;;;;;;;7.19;100.00;99576.64;216720;1284;139232;-91
2023/12/30 05:26:57;;;;;;;6.10;1.30;;;;;;;7.19;100.00;99587.81;218624;1284;95026;-91
2023/12/30 05:31:57;;;;;;;5.70;1.10;;;;;;;7.19;100.00;99575.38;217006;1284;139525;-90
2023/12/30 05:36:58;;;;;;;4.60;1.20;;;;;;;7.20;100.00;99565.93;215429;1285;138390;-91
2023/12/30 05:41:58;;;;;;;2.90;1.00;;;;;;;7.20;100.00;99579.14;214849;1285;139383;-91
2023/12/30 05:46:59;;;;;;;5.00;1.30;;;;;;;7.20;100.00;99575.00;214639;1286;138351;-89
2023/12/30 05:51:59;;;;;;;4.00;1.50;;;;;;;7.19;100.00;99559.37;214464;1285;139027;-91
2023/12/30 05:57:00;;;;;;;5.40;1.50;;;;;;;7.19;100.00;99598.36;214724;1289;96598;-91
2023/12/30 06:02:01;;;;;;;2.40;1.10;;;;;;;7.18;100.00;99619.55;214061;1284;138918;-92
2023/12/30 06:07:01;;;;;;;1.90;1.30;;;;;;;7.16;100.00;99624.98;214860;1284;138964;-90
2023/12/30 06:12:02;;;;;;;4.80;0.90;;;;;;;7.14;100.00;99623.79;214195;1284;139437;-88
2023/12/30 06:17:03;;;;;;;1.00;0.80;;;;;;;7.13;100.00;99621.51;214750;1287;138627;-90
2023/12/30 06:22:04;;;;;;;2.50;1.00;;;;;;;7.11;100.00;99621.64;214360;1286;139695;-89
2023/12/30 06:27:05;;;;;;;2.90;0.80;;;;;;;7.09;100.00;99631.08;214831;1288;96799;-88
2023/12/30 06:32:06;;;;;;;2.70;0.90;;;;;;;7.08;100.00;99637.48;214210;1287;139747;-92
2023/12/30 06:37:07;;;;;;;2.50;0.80;;;;;;;7.08;100.00;99638.48;214595;1284;138121;-89
2023/12/30 06:42:07;;;;;;;2.60;0.80;;;;;;;7.07;100.00;99658.81;214236;1284;139504;-89
2023/12/30 06:47:08;;;;;;;2.40;1.00;;;;;;;7.05;100.00;99666.52;214718;1284;139093;-89
2023/12/30 06:52:08;;;;;;;3.30;1.30;;;;;;;7.02;100.00;99677.44;214312;1289;140319;-88
2023/12/30 06:57:09;;;;;;;2.80;0.60;;;;;;;6.98;100.00;99685.42;214972;1285;97112;-88
2023/12/30 07:02:09;;;;;;;3.50;0.70;;;;;;;6.92;100.00;99694.64;214273;1284;139866;-87
2023/12/30 07:07:09;;;;;;;4.30;0.90;;;;;;;6.88;100.00;99697.39;214799;1285;138777;-87
2023/12/30 07:12:12;;;;;;;5.00;0.90;;;;;;;6.84;100.00;99687.02;214351;1284;140610;-89
2023/12/30 07:17:15;;;;;;;1.40;0.70;;;;;;;6.78;100.00;99686.40;214838;1289;138533;-88
2023/12/30 07:22:19;;;;;;;2.40;0.80;;;;;;;6.73;100.00;99695.77;214173;1284;139843;-88
2023/12/30 07:27:19;;;;;;;3.30;1.00;;;;;;;6.70;100.00;99704.88;214786;1285;109897;-89
2023/12/30 07:32:19;;;;;;;1.90;0.80;;;;;;;6.67;100.00;99712.56;214199;1286;139247;-88
2023/12/30 07:37:20;;;;;;;3.20;0.70;;;;;;;6.64;100.00;99725.41;214700;1285;138047;-88
2023/12/30 07:42:21;;;;;;;2.70;1.10;;;;;;;6.59;100.00;99742.19;214350;1288;139615;-90
2023/12/30 07:47:21;;;;;;;2.10;0.90;;;;;;;6.53;100.00;99749.61;214833;1284;138359;-89
2023/12/30 07:52:22;;;;;;;1.80;0.80;;;;;;;6.48;100.00;99760.52;214389;1285;139457;-89
2023/12/30 07:57:22;;;;;;;2.90;0.80;;;;;;;6.44;100.00;99763.50;214945;1285;97600;-89
2023/12/30 08:02:23;;;;;;;1.40;0.60;;;;;;;6.41;100.00;99760.80;214185;1285;139105;-88
2023/12/30 08:07:25;;;;;;;2.50;0.90;;;;;;;6.41;100.00;99760.17;214607;1284;138059;-90
2023/12/30 08:12:25;;;;;;;2.90;0.90;;;;;;;6.40;100.00;99774.38;214237;1288;138920;-88
2023/12/30 08:17:25;;;;;;;4.90;1.90;;;;;;;6.39;100.00;99786.77;214826;1289;138588;-88
2023/12/30 08:22:26;;;;;;;2.20;1.00;;;;;;;6.40;100.00;99806.92;214260;1285;139477;-89
2023/12/30 08:27:26;;;;;;;3.70;1.00;;;;;;;6.41;100.00;99808.27;215196;1284;96705;-89
2023/12/30 08:32:26;;;;;;;6.90;1.70;;;;;;;6.41;100.00;99819.05;214531;1284;139904;-89
2023/12/30 08:37:27;;;;;;;3.30;1.30;;;;;;;6.42;100.00;99834.13;215127;1284;138737;-91
2023/12/30 08:42:34;;;;;;;2.70;1.00;;;;;;;6.44;100.00;99844.03;214964;1285;139725;-89
2023/12/30 08:47:35;;;;;;;2.20;1.00;;;;;;;6.51;100.00;99853.35;215955;1286;138697;-92
2023/12/30 08:52:36;;;;;;;4.00;1.30;;;;;;;6.59;100.00;99862.58;215123;1284;139744;-91
2023/12/30 08:57:37;;;;;;;6.40;1.50;;;;;;;6.71;100.00;99869.17;215654;1284;96531;-89
2023/12/30 09:02:46;;;;;;;5.10;1.50;;;;;;;6.80;100.00;99889.42;214751;1284;139283;-90
2023/12/30 09:07:48;;;;;;;4.00;1.10;;;;;;;6.85;100.00;99899.42;215538;1285;138933;-89
2023/12/30 09:12:52;;;;;;;4.70;1.50;;;;;;;6.73;100.00;99900.85;214584;1285;139550;-91
2023/12/30 09:17:55;;;;;;;5.60;1.90;;;;;;;6.64;100.00;99922.09;214659;1287;138418;-91
2023/12/30 09:22:55;;;;;;;7.40;2.30;;;;;;;6.54;100.00;99938.38;213966;1289;139495;-89
2023/12/30 09:27:56;;;;;;;3.70;1.30;;;;;;;6.46;100.00;99935.44;214614;1289;138754;-90
2023/12/30 09:32:57;;;;;;;6.60;1.40;;;;;;;6.34;100.00;99925.58;214228;1284;138953;-90
2023/12/30 09:37:57;;;;;;;6.80;1.60;;;;;;;6.22;100.00;99918.46;214419;1285;138347;-91
2023/12/30 09:43:04;;;;;;;4.40;1.40;;;;;;;6.16;100.00;99917.48;213930;1286;139812;-90
2023/12/30 09:48:08;;;;;;;5.30;1.40;;;;;;;6.11;100.00;99913.63;214154;1285;305974;-91
2023/12/30 09:53:09;;;;;;;4.30;1.30;;;;;;;6.09;100.00;99919.21;214321;1288;139418;-90
2023/12/30 09:58:10;;;;;;;5.00;1.30;;;;;;;6.08;100.00;99918.73;214563;1284;139113;-90
2023/12/30 10:03:12;;;;;;;4.40;1.10;;;;;;;6.07;100.00;99919.97;214040;1289;139303;-90
2023/12/30 10:08:12;;;;;;;7.80;1.60;;;;;;;6.11;100.00;99922.30;214600;1284;138680;-91
2023/12/30 10:13:22;;;;;;;4.80;1.60;;;;;;;6.15;100.00;99926.12;213912;1284;139670;-90
2023/12/30 10:18:24;;;;;;;9.50;2.10;;;;;;;6.19;100.00;99932.77;214459;1286;138269;-91
2023/12/30 10:23:28;;;;;;;8.10;2.20;;;;;;;6.25;100.00;99938.83;214298;1285;140006;-90
2023/12/30 10:28:42;;;;;;;5.70;1.60;;;;;;;6.29;100.00;99937.73;214687;1285;138421;-89
2023/12/30 10:33:47;;;;;;;5.00;1.60;;;;;;;6.35;100.00;99945.90;213967;1285;139396;-90
2023/12/30 10:44:13;;;;;;;10.50;2.30;;;;;;;6.45;100.00;99961.16;214016;1289;139393;-93
2023/12/30 10:49:16;;;;;;;8.60;2.70;;;;;;;6.51;100.00;99961.67;215024;1284;138345;-90
2023/12/30 10:54:26;;;;;;;7.60;1.70;;;;;;;6.59;100.00;99975.03;214646;1289;139002;-92
2023/12/30 10:59:28;;;;;;;7.50;1.60;;;;;;;6.67;100.00;99981.67;215292;1284;139131;-89
2023/12/30 11:04:29;;;;;;;5.40;1.50;;;;;;;6.76;100.00;99984.67;214015;1285;140471;-89
2023/12/30 11:09:32;;;;;;;5.70;1.70;;;;;;;6.86;100.00;99995.23;214651;1289;96657;-91
2023/12/30 11:14:35;;;;;;;4.30;1.40;;;;;;;6.93;100.00;99996.48;213919;1284;139373;-92
2023/12/30 11:19:36;;;;;;;4.50;1.20;;;;;;;7.02;100.00;100002.60;214763;1284;139536;-87
2023/12/30 11:24:42;;;;;;;6.00;1.70;;;;;;;7.11;100.00;100010.41;214255;1284;140759;-90
2023/12/30 11:29:43;;;;;;;10.20;1.90;;;;;;;7.19;100.00;100011.64;214586;1285;139098;-89
2023/12/30 11:34:43;;;;;;;4.20;1.20;;;;;;;7.22;100.00;100018.20;214060;1284;139589;-89
2023/12/30 11:39:46;;;;;;;6.00;1.30;;;;;;;7.23;100.00;100012.52;214477;1284;138108;-88
2023/12/30 11:44:47;;;;;;;5.10;1.40;;;;;;;7.22;100.00;100017.89;214556;1287;139499;-92
2023/12/30 11:49:47;;;;;;;7.70;1.60;;;;;;;7.21;100.00;100018.48;214203;1289;139998;-92
2023/12/30 11:54:48;;;;;;;6.40;1.40;;;;;;;7.16;100.00;100025.35;214649;1285;139789;-93
2023/12/30 11:59:50;;;;;;;7.80;1.60;;;;;;;7.10;100.00;100023.52;214117;1284;139308;-88
2023/12/30 12:04:51;;;;;;;7.10;1.50;;;;;;;7.05;100.00;100025.22;214462;1288;138328;-90
2023/12/30 12:09:52;;;;;;;9.50;1.50;;;;;;;7.02;100.00;100028.75;214263;1289;139596;-89
2023/12/30 12:14:53;;;;;;;5.60;1.60;;;;;;;6.97;100.00;100028.98;214658;1285;139184;-88
2023/12/30 12:19:55;;;;;;;4.80;1.20;;;;;;;6.94;100.00;100027.39;214432;1285;140100;-91
2023/12/30 12:24:56;;;;;;;7.80;1.60;;;;;;;6.90;100.00;100030.52;214659;1284;138851;-91
2023/12/30 12:29:56;;;;;;;5.20;1.50;;;;;;;6.87;100.00;100027.31;213981;1284;139387;-89
2023/12/30 12:34:57;;;;;;;7.40;1.50;;;;;;;6.83;100.00;100036.23;214504;1284;138820;-92
2023/12/30 12:39:58;;;;;;;9.30;1.50;;;;;;;6.81;100.00;100040.00;214175;1285;139629;-90
2023/12/30 12:44:58;;;;;;;6.00;1.90;;;;;;;6.78;100.00;100045.80;214707;1288;96590;-91
2023/12/30 12:49:59;;;;;;;8.90;1.70;;;;;;;6.74;100.00;100043.47;213985;1286;139381;-89
2023/12/30 12:55:00;;;;;;;9.00;2.10;;;;;;;6.72;100.00;100041.86;214363;1288;138907;-88
2023/12/30 13:00:07;;;;;;;8.30;1.90;;;;;;;6.72;100.00;100041.39;214102;1285;139601;-89
2023/12/30 13:05:09;;;;;;;8.00;2.00;;;;;;;6.70;100.00;100043.00;214441;1285;138648;-90
2023/12/30 13:15:29;;;;;;;9.10;1.70;;;;;;;6.71;100.00;100039.34;214758;1289;96649;-89
2023/12/30 13:20:31;;;;;;;9.30;1.80;;;;;;;6.69;100.00;100040.95;214038;1289;139289;-91
2023/12/30 13:25:32;;;;;;;6.10;1.80;;;;;;;6.65;100.00;100038.44;214527;1286;138256;-91
2023/12/30 13:30:32;;;;;;;10.50;2.10;;;;;;;6.59;100.00;100044.17;214132;1285;139399;-89
2023/12/30 13:35:37;;;;;;;7.10;1.60;;;;;;;6.55;100.00;100053.39;214831;1284;139161;-93
2023/12/30 13:40:42;;;;;;;8.20;1.70;;;;;;;6.51;100.00;100053.67;214060;1287;138636;-88
2023/12/30 13:45:46;;;;;;;11.50;2.00;;;;;;;6.48;100.00;100062.54;214631;1285;97883;-90
2023/12/30 13:50:52;;;;;;;8.80;2.20;;;;;;;6.48;100.00;100068.52;214006;1284;139584;-91
2023/12/30 13:55:56;;;;;;;7.80;1.80;;;;;;;6.47;100.00;100072.95;214587;1285;138977;-88
2023/12/30 14:00:57;;;;;;;7.70;1.90;;;;;;;6.45;100.00;100078.34;213995;1285;139147;-89
2023/12/30 14:05:58;;;;;;;7.00;2.00;;;;;;;6.44;100.00;100086.04;214584;1285;138630;-92
2023/12/30 14:11:06;;;;;;;12.10;1.80;;;;;;;6.43;100.00;100093.83;213862;1285;139620;-92
2023/12/30 14:16:10;;;;;;;12.60;2.00;;;;;;;6.41;100.00;100095.18;214314;1289;138838;-89
2023/12/30 14:21:11;;;;;;;9.70;2.30;;;;;;;6.40;100.00;100101.86;214090;1286;140086;-90
2023/12/30 14:26:11;;;;;;;13.60;2.50;;;;;;;6.39;100.00;100112.00;214623;1284;138530;-88
2023/12/30 14:31:15;;;;;;;9.70;2.10;;;;;;;6.37;100.00;100109.00;214013;1285;139592;-91
2023/12/30 14:36:16;;;;;;;12.70;2.10;;;;;;;6.36;100.00;100112.63;214310;1289;138980;-89
2023/12/30 14:41:17;;;;;;;10.80;2.00;;;;;;;6.36;100.00;100114.04;214145;1286;139596;-90
2023/12/30 14:46:17;;;;;;;7.20;2.40;;;;;;;6.35;100.00;100111.20;214531;1284;138836;-90
2023/12/30 14:51:18;;;;;;;18.50;2.60;;;;;;;6.34;100.00;100108.30;214171;1289;140566;-88
2023/12/30 14:56:19;;;;;;;11.90;2.60;;;;;;;6.33;100.00;100113.27;214402;1288;139955;-88
2023/12/30 15:01:20;;;;;;;9.40;2.40;;;;;;;6.32;100.00;100121.27;214357;1285;140818;-89
2023/12/30 15:06:21;;;;;;;11.10;2.60;;;;;;;6.30;100.00;100120.64;214579;1286;139284;-91
2023/12/30 15:11:22;;;;;;;10.60;2.50;;;;;;;6.30;100.00;100124.52;214038;1291;139841;-90
2023/12/30 15:16:22;;;;;;;16.20;2.80;;;;;;;6.28;100.00;100126.27;214693;1288;139385;-91
2023/12/30 15:21:23;;;;;;;11.20;2.90;;;;;;;6.26;100.00;100129.35;214249;1285;139977;-90
2023/12/30 15:26:24;;;;;;;8.00;2.60;;;;;;;6.24;100.00;100141.23;214705;1284;138607;-85
2023/12/30 15:31:24;;;;;;;13.60;2.80;;;;;;;6.22;100.00;100141.81;214150;1286;139731;-89
2023/12/30 15:36:24;;;;;;;12.80;3.10;;;;;;;6.19;100.00;100149.85;214483;1290;138544;-89
2023/12/30 15:41:25;;;;;;;12.50;2.70;;;;;;;6.14;100.00;100152.48;214139;1289;141086;-90
2023/12/30 15:46:28;;;;;;;12.80;4.20;;;;;;;6.08;100.00;100152.80;214656;1289;138590;-90
2023/12/30 15:51:30;;;;;;;12.50;3.30;;;;;;;6.02;100.00;100153.98;214187;1285;140626;-90
2023/12/30 15:56:31;;;;;;;14.00;3.30;;;;;;;5.95;100.00;100158.17;214715;1284;138467;-92
2023/12/30 16:01:32;;;;;;;16.70;5.50;;;;;;;5.86;100.00;100168.95;214166;1289;140018;-89
2023/12/30 16:06:33;;;;;;;12.60;3.60;;;;;;;5.79;100.00;100167.50;214551;1290;138825;-90
2023/12/30 16:11:35;;;;;;;12.30;3.40;;;;;;;5.75;100.00;100170.73;214208;1290;139948;-89
2023/12/30 16:16:43;;;;;;;13.90;3.80;;;;;;;5.73;100.00;100175.52;214741;1289;138629;-90
2023/12/30 16:21:44;;;;;;;15.70;4.10;;;;;;;5.72;100.00;100176.20;214477;1290;140437;-91
2023/12/30 16:26:45;;;;;;;13.10;4.60;;;;;;;5.71;100.00;100182.50;214593;1285;138166;-89
2023/12/30 16:31:45;;;;;;;14.30;4.10;;;;;;;5.72;100.00;100191.70;213874;1285;140429;-91
2023/12/30 16:36:46;;;;;;;15.90;4.00;;;;;;;5.71;100.00;100191.55;214550;1288;139058;-91
2023/12/30 16:41:46;;;;;;;11.70;3.80;;;;;;;5.72;100.00;100195.77;214121;1285;140244;-91
2023/12/30 16:46:46;;;;;;;16.60;4.30;;;;;;;5.71;100.00;100200.42;214400;1289;138692;-90
2023/12/30 16:51:47;;;;;;;9.80;4.10;;;;;;;5.71;100.00;100200.13;214289;1291;141250;-90
2023/12/30 16:56:47;;;;;;;16.10;5.20;;;;;;;5.72;100.00;100200.70;214590;1285;138101;-92
2023/12/30 17:01:48;;;;;;;26.60;9.70;;;;;;;5.74;100.00;100207.77;214017;1289;139864;-87
2023/12/30 17:06:49;;;;;;;19.60;8.40;;;;;;;5.77;100.00;100218.55;214657;1285;138479;-87
2023/12/30 17:11:49;;;;;;;17.10;7.60;;;;;;;5.79;100.00;100217.98;214100;1289;139877;-91
2023/12/30 17:16:50;;;;;;;23.30;9.40;;;;;;;5.82;100.00;100223.44;214517;1285;138683;-90
2023/12/30 17:21:50;;;;;;;20.60;7.90;;;;;;;5.85;100.00;100223.60;214196;1288;139893;-90
2023/12/30 17:26:51;;;;;;;17.20;6.60;;;;;;;5.87;100.00;100224.67;214723;1288;138694;-89
2023/12/30 17:31:52;;;;;;;22.50;7.40;;;;;;;5.90;100.00;100234.13;214043;1289;139563;-90
2023/12/30 17:36:53;;;;;;;18.80;7.00;;;;;;;5.93;100.00;100239.80;214730;1289;139358;-87
2023/12/30 17:41:54;;;;;;;17.20;6.00;;;;;;;5.94;100.00;100244.54;214098;1285;139922;-87
2023/12/30 17:46:54;;;;;;;18.90;6.10;;;;;;;5.95;100.00;100254.02;214575;1284;139352;-90
2023/12/30 17:51:55;;;;;;;25.80;7.90;;;;;;;5.95;100.00;100258.60;214173;1289;139699;-89
2023/12/30 17:56:55;;;;;;;18.70;8.10;;;;;;;5.97;100.00;100255.30;214938;1285;96673;-90
2023/12/30 18:01:56;;;;;;;15.10;6.60;;;;;;;5.98;100.00;100251.02;214115;1289;138988;-90
2023/12/30 18:06:56;;;;;;;14.40;5.50;;;;;;;5.99;100.00;100250.52;214651;1287;138543;-90
2023/12/30 18:11:59;;;;;;;15.10;6.00;;;;;;;5.99;100.00;100260.36;214107;1286;139799;-92
2023/12/30 18:17:00;;;;;;;14.50;5.60;;;;;;;6.00;100.00;100268.11;214662;1289;138560;-91
2023/12/30 18:22:01;;;;;;;16.40;4.40;;;;;;;6.00;100.00;100279.20;213935;1289;140629;-93
2023/12/30 18:27:02;;;;;;;13.80;4.90;;;;;;;6.01;100.00;100275.38;214715;1288;97533;-91
2023/12/30 18:32:04;;;;;;;13.40;4.00;;;;;;;6.02;100.00;100280.48;214094;1289;139465;-90
2023/12/30 18:37:07;;;;;;;13.00;4.40;;;;;;;6.03;100.00;100279.34;214460;1289;139568;-91
2023/12/30 18:42:07;;;;;;;12.40;4.70;;;;;;;6.04;100.00;100287.33;214165;1284;139340;-89
2023/12/30 18:47:08;;;;;;;13.10;4.50;;;;;;;6.04;100.00;100291.08;214556;1289;138798;-91
2023/12/30 18:52:08;;;;;;;14.20;4.70;;;;;;;6.03;100.00;100293.92;214037;1285;140354;-88
2023/12/30 18:57:09;;;;;;;13.40;4.50;;;;;;;6.01;100.00;100297.87;214672;1289;96670;-90
2023/12/30 19:02:11;;;;;;;17.60;5.00;;;;;;;6.00;100.00;100299.16;213912;1285;139351;-89
2023/12/30 19:07:12;;;;;;;20.50;7.40;;;;;;;5.97;100.00;100298.95;214618;1285;139163;-89
2023/12/30 19:12:13;;;;;;;16.10;4.90;;;;;;;5.94;100.00;100306.04;213947;1288;140467;-89
2023/12/30 19:17:13;;;;;;;15.00;4.40;;;;;;;5.91;100.00;100304.38;214589;1288;138902;-89
2023/12/30 19:22:14;;;;;;;10.60;4.20;;;;;;;5.86;100.00;100300.74;213886;1289;139810;-91
2023/12/30 19:27:15;;;;;;;10.20;4.90;;;;;;;5.83;100.00;100295.81;214493;1288;97102;-89
2023/12/30 19:32:16;;;;;;;10.40;3.60;;;;;;;5.79;100.00;100301.15;213834;1284;138584;-91
2023/12/30 19:37:17;;;;;;;12.60;4.50;;;;;;;5.76;100.00;100300.73;214318;1287;138725;-90
2023/12/30 19:42:17;;;;;;;14.80;5.30;;;;;;;5.73;100.00;100315.92;213783;1285;139854;-90
2023/12/30 19:47:18;;;;;;;12.90;5.00;;;;;;;5.68;100.00;100321.41;214573;1285;138526;-90
2023/12/30 19:52:18;;;;;;;14.60;4.90;;;;;;;5.65;100.00;100331.23;214006;1288;140721;-90
2023/12/30 19:57:19;;;;;;;15.00;5.90;;;;;;;5.61;100.00;100332.19;214579;1291;97503;-90
2023/12/30 20:02:19;;;;;;;15.40;6.10;;;;;;;5.58;100.00;100337.89;213888;1286;139567;-89
2023/12/30 20:07:21;;;;;;;19.00;5.10;;;;;;;5.55;100.00;100340.38;214566;1286;138595;-90
2023/12/30 20:12:21;;;;;;;13.50;5.40;;;;;;;5.51;100.00;100344.86;213918;1289;140141;-89
2023/12/30 20:17:22;;;;;;;15.10;5.40;;;;;;;5.48;100.00;100350.84;214607;1284;138799;-90
2023/12/30 20:22:24;;;;;;;17.00;5.70;;;;;;;5.43;100.00;100356.30;214213;1289;141044;-90
2023/12/30 20:27:25;;;;;;;14.30;5.30;;;;;;;5.39;100.00;100364.84;214701;1284;107870;-89
2023/12/30 20:32:25;;;;;;;13.80;5.50;;;;;;;5.34;100.00;100367.59;214075;1288;140265;-89
2023/12/30 20:37:28;;;;;;;15.00;5.80;;;;;;;5.29;100.00;100364.83;214672;1289;138881;-89
2023/12/30 20:42:28;;;;;;;25.80;8.60;;;;;;;5.20;100.00;100357.55;214089;1288;140244;-90
2023/12/30 20:47:29;;;;;;;15.30;6.50;;;;;;;5.10;100.00;100355.28;214567;1286;138700;-91
2023/12/30 20:52:31;;;;;;;17.80;6.70;;;;;;;5.00;100.00;100349.21;214095;1285;139501;-91
2023/12/30 20:57:31;;;;;;;15.30;7.10;;;;;;;4.94;100.00;100355.23;214386;1290;107625;-90
2023/12/30 21:02:32;;;;;;;15.00;5.80;;;;;;;4.89;100.00;100360.21;213847;1289;140397;-91
2023/12/30 21:07:34;;;;;;;18.40;6.50;;;;;;;4.86;100.00;100363.15;214533;1286;138427;-91
2023/12/30 21:12:35;;;;;;;15.90;5.70;;;;;;;4.83;100.00;100368.98;214194;1287;139713;-90
2023/12/30 21:17:37;;;;;;;16.60;6.90;;;;;;;4.82;100.00;100375.96;214892;1286;138784;-91
2023/12/30 21:22:38;;;;;;;19.30;6.00;;;;;;;4.81;100.00;100382.15;214299;1289;140123;-89
2023/12/30 21:27:38;;;;;;;18.20;6.80;;;;;;;4.80;100.00;100381.24;214713;1288;96569;-91
2023/12/30 21:32:39;;;;;;;16.50;6.60;;;;;;;4.79;100.00;100384.91;214067;1286;139924;-90
2023/12/30 21:37:39;;;;;;;18.80;5.70;;;;;;;4.78;100.00;100380.48;214531;1285;138455;-90
2023/12/30 21:42:43;;;;;;;14.90;5.20;;;;;;;4.75;100.00;100386.25;213970;1285;140211;-91
2023/12/30 21:47:43;;;;;;;17.60;6.00;;;;;;;4.71;100.00;100388.98;214425;1285;357398;-91
2023/12/30 21:52:45;;;;;;;16.90;7.10;;;;;;;4.67;100.00;100398.27;214083;1286;139836;-90
2023/12/30 21:57:45;;;;;;;14.30;7.30;;;;;;;4.62;100.00;100407.44;214665;1285;97490;-90
2023/12/30 22:02:46;;;;;;;14.50;6.80;;;;;;;4.54;100.00;100402.52;213997;1284;139803;-90
2023/12/30 22:07:46;;;;;;;17.90;7.00;;;;;;;4.47;100.00;100407.31;214494;1285;139224;-90
2023/12/30 22:12:47;;;;;;;17.40;8.60;;;;;;;4.39;100.00;100404.86;214049;1285;139594;-89
2023/12/30 22:17:48;;;;;;;20.10;7.80;;;;;;;4.31;100.00;100398.81;214321;1285;138482;-90
2023/12/30 22:22:49;;;;;;;17.90;7.60;;;;;;;4.23;100.00;100398.42;213792;1284;139313;-91
2023/12/30 22:27:50;;;;;;;20.80;7.30;;;;;;;4.12;100.00;100400.48;214559;1289;100249;-89
2023/12/30 22:32:51;;;;;;;21.80;7.00;;;;;;;4.03;100.00;100399.73;213782;1289;140270;-89
2023/12/30 22:37:51;;;;;;;20.10;7.00;;;;;;;3.92;100.00;100404.80;214537;1285;138503;-89
2023/12/30 22:42:52;;;;;;;29.00;9.90;;;;;;;3.80;100.00;100407.42;215350;1285;139712;-89
2023/12/30 22:47:52;;;;;;;22.50;8.80;;;;;;;3.72;100.00;100402.01;214612;1286;138653;-89
2023/12/30 22:52:53;;;;;;;54.70;19.60;;;;;;;3.65;100.00;100403.12;214109;1285;140113;-89
2023/12/30 22:57:53;;;;;;;66.50;19.90;;;;;;;3.58;100.00;100408.08;214459;1289;96626;-89